EZY45C LEGE-EGBB
Flight info
| Callsign | EZY45C |
|---|---|
| Flight time | 1h 46m |
| Altitude | 36000 |
| Route | GEANT DCT ROCAN DCT TOU DCT TUPAR UN861 DIKRO UM184 HEMEL |
| Aircraft | A320/M-SDE3FGHIRWY/LB1 |
Departure
| Time | 2026-05-05 17:30 |
|---|---|
| Airport | Girona-Costa Brava Airport (LEGE) |
Arrival
| Time | 2026-05-05 19:16 |
|---|---|
| Airport | Birmingham Airport (EGBB) |
| Time | Latitude | Longitude | Altitude | Speed | Heading |
|---|---|---|---|---|---|
| 2026-05-05 16:42 | 41.89772 | 2.76450 | 411 ft | 0 kts | 106° |
| 2026-05-05 17:19 | 41.89772 | 2.76449 | 411 ft | 1 kts | 106° |
| 2026-05-05 17:19 | 41.89778 | 2.76417 | 414 ft | 4 kts | 99° |
| 2026-05-05 17:20 | 41.89777 | 2.76384 | 419 ft | 4 kts | 59° |
| 2026-05-05 17:20 | 41.89761 | 2.76365 | 413 ft | 1 kts | 15° |
| 2026-05-05 17:20 | 41.89756 | 2.76363 | 414 ft | 0 kts | 15° |
| 2026-05-05 17:23 | 41.89759 | 2.76363 | 414 ft | 1 kts | 12° |
| 2026-05-05 17:23 | 41.89783 | 2.76372 | 420 ft | 3 kts | 15° |
| 2026-05-05 17:24 | 41.89804 | 2.76380 | 415 ft | 5 kts | 15° |
| 2026-05-05 17:24 | 41.89851 | 2.76392 | 414 ft | 8 kts | 356° |
| 2026-05-05 17:24 | 41.89891 | 2.76338 | 415 ft | 10 kts | 287° |
| 2026-05-05 17:24 | 41.89912 | 2.76245 | 419 ft | 10 kts | 298° |
| 2026-05-05 17:25 | 41.89978 | 2.76243 | 430 ft | 11 kts | 16° |
| 2026-05-05 17:25 | 41.90032 | 2.76262 | 429 ft | 13 kts | 14° |
| 2026-05-05 17:25 | 41.90165 | 2.76316 | 424 ft | 17 kts | 16° |
| 2026-05-05 17:25 | 41.90284 | 2.76359 | 429 ft | 19 kts | 15° |
| 2026-05-05 17:26 | 41.90421 | 2.76410 | 438 ft | 22 kts | 16° |
| 2026-05-05 17:26 | 41.90575 | 2.76468 | 437 ft | 23 kts | 15° |
| 2026-05-05 17:26 | 41.90714 | 2.76521 | 451 ft | 18 kts | 16° |
| 2026-05-05 17:26 | 41.90827 | 2.76563 | 457 ft | 17 kts | 16° |
| 2026-05-05 17:27 | 41.90947 | 2.76608 | 462 ft | 19 kts | 15° |
| 2026-05-05 17:27 | 41.91079 | 2.76660 | 463 ft | 18 kts | 15° |
| 2026-05-05 17:27 | 41.91200 | 2.76705 | 464 ft | 20 kts | 16° |
| 2026-05-05 17:27 | 41.91333 | 2.76755 | 466 ft | 18 kts | 15° |
| 2026-05-05 17:28 | 41.91432 | 2.76745 | 467 ft | 10 kts | 330° |
| 2026-05-05 17:28 | 41.91477 | 2.76709 | 472 ft | 5 kts | 329° |
| 2026-05-05 17:28 | 41.91502 | 2.76690 | 474 ft | 7 kts | 330° |
| 2026-05-05 17:28 | 41.91533 | 2.76628 | 476 ft | 9 kts | 262° |
| 2026-05-05 17:29 | 41.91477 | 2.76579 | 475 ft | 14 kts | 196° |
| 2026-05-05 17:29 | 41.91190 | 2.76470 | 473 ft | 79 kts | 195° |
| 2026-05-05 17:29 | 41.90454 | 2.76191 | 455 ft | 139 kts | 195° |
| 2026-05-05 17:29 | 41.89400 | 2.75818 | 732 ft | 165 kts | 196° |
| 2026-05-05 17:30 | 41.88244 | 2.75412 | 1302 ft | 178 kts | 195° |
| 2026-05-05 17:30 | 41.87013 | 2.74982 | 1980 ft | 187 kts | 196° |
| 2026-05-05 17:30 | 41.85745 | 2.74536 | 2679 ft | 188 kts | 197° |
| 2026-05-05 17:30 | 41.84480 | 2.74089 | 3376 ft | 188 kts | 198° |
| 2026-05-05 17:31 | 41.83216 | 2.73612 | 3834 ft | 199 kts | 202° |
| 2026-05-05 17:31 | 41.82122 | 2.72455 | 4164 ft | 209 kts | 243° |
| 2026-05-05 17:31 | 41.81942 | 2.70530 | 4727 ft | 217 kts | 283° |
| 2026-05-05 17:31 | 41.82746 | 2.68801 | 5327 ft | 232 kts | 318° |
| 2026-05-05 17:32 | 41.84268 | 2.67807 | 5665 ft | 257 kts | 339° |
| 2026-05-05 17:32 | 41.86066 | 2.67155 | 6130 ft | 275 kts | 344° |
| 2026-05-05 17:32 | 41.87947 | 2.66628 | 6932 ft | 276 kts | 345° |
| 2026-05-05 17:32 | 41.89850 | 2.66123 | 7667 ft | 280 kts | 345° |
| 2026-05-05 17:33 | 41.91770 | 2.65598 | 8425 ft | 284 kts | 345° |
| 2026-05-05 17:33 | 41.93710 | 2.65036 | 9190 ft | 287 kts | 344° |
| 2026-05-05 17:33 | 41.95671 | 2.64438 | 9937 ft | 291 kts | 343° |
| 2026-05-05 17:33 | 41.97639 | 2.63818 | 10629 ft | 293 kts | 343° |
| 2026-05-05 17:34 | 41.99633 | 2.63182 | 11309 ft | 297 kts | 343° |
| 2026-05-05 17:34 | 42.01659 | 2.62531 | 11979 ft | 301 kts | 343° |
| 2026-05-05 17:34 | 42.03712 | 2.61870 | 12651 ft | 306 kts | 343° |
| 2026-05-05 17:34 | 42.05799 | 2.61197 | 13266 ft | 311 kts | 343° |
| 2026-05-05 17:35 | 42.07902 | 2.60460 | 13867 ft | 313 kts | 336° |
| 2026-05-05 17:35 | 42.09786 | 2.59055 | 14457 ft | 310 kts | 317° |
| 2026-05-05 17:35 | 42.11430 | 2.57227 | 15069 ft | 312 kts | 316° |
| 2026-05-05 17:35 | 42.13104 | 2.55351 | 15671 ft | 315 kts | 316° |
| 2026-05-05 17:36 | 42.14795 | 2.53455 | 16266 ft | 318 kts | 316° |
| 2026-05-05 17:36 | 42.16503 | 2.51538 | 16863 ft | 321 kts | 316° |
| 2026-05-05 17:36 | 42.17918 | 2.49951 | 17352 ft | 324 kts | 315° |
| 2026-05-05 17:36 | 42.19667 | 2.47991 | 17904 ft | 328 kts | 315° |
| 2026-05-05 17:37 | 42.21430 | 2.46016 | 18412 ft | 331 kts | 315° |
| 2026-05-05 17:37 | 42.22611 | 2.44698 | 18741 ft | 333 kts | 315° |
| 2026-05-05 17:37 | 42.25020 | 2.42025 | 19453 ft | 337 kts | 315° |
| 2026-05-05 17:37 | 42.26841 | 2.40012 | 19961 ft | 339 kts | 315° |
| 2026-05-05 17:38 | 42.28676 | 2.37982 | 20451 ft | 342 kts | 315° |
| 2026-05-05 17:38 | 42.30524 | 2.35931 | 20942 ft | 346 kts | 315° |
| 2026-05-05 17:38 | 42.32388 | 2.33860 | 21424 ft | 348 kts | 315° |
| 2026-05-05 17:38 | 42.34263 | 2.31776 | 21919 ft | 351 kts | 315° |
| 2026-05-05 17:39 | 42.36161 | 2.29664 | 22429 ft | 354 kts | 314° |
| 2026-05-05 17:39 | 42.38065 | 2.27537 | 22951 ft | 356 kts | 314° |
| 2026-05-05 17:39 | 42.39982 | 2.25389 | 23406 ft | 360 kts | 314° |
| 2026-05-05 17:39 | 42.41917 | 2.23221 | 23783 ft | 363 kts | 314° |
| 2026-05-05 17:40 | 42.43870 | 2.21036 | 24193 ft | 365 kts | 314° |
| 2026-05-05 17:40 | 42.45836 | 2.18841 | 24600 ft | 367 kts | 314° |
| 2026-05-05 17:40 | 42.47813 | 2.16632 | 25008 ft | 369 kts | 314° |
| 2026-05-05 17:40 | 42.49796 | 2.14414 | 25402 ft | 370 kts | 313° |
| 2026-05-05 17:41 | 42.51785 | 2.12184 | 25813 ft | 372 kts | 313° |
| 2026-05-05 17:41 | 42.53791 | 2.09932 | 26219 ft | 374 kts | 313° |
| 2026-05-05 17:41 | 42.55797 | 2.07679 | 26601 ft | 376 kts | 313° |
| 2026-05-05 17:41 | 42.57792 | 2.05433 | 26954 ft | 378 kts | 313° |
| 2026-05-05 17:42 | 42.59818 | 2.03150 | 27322 ft | 379 kts | 313° |
| 2026-05-05 17:42 | 42.61855 | 2.00848 | 27639 ft | 382 kts | 313° |
| 2026-05-05 17:42 | 42.63910 | 1.98524 | 27980 ft | 384 kts | 313° |
| 2026-05-05 17:42 | 42.65988 | 1.96220 | 28338 ft | 389 kts | 316° |
| 2026-05-05 17:43 | 42.68276 | 1.94181 | 28594 ft | 397 kts | 323° |
| 2026-05-05 17:43 | 42.70782 | 1.92522 | 28961 ft | 404 kts | 328° |
| 2026-05-05 17:43 | 42.73350 | 1.90944 | 29326 ft | 405 kts | 328° |
| 2026-05-05 17:43 | 42.75912 | 1.89359 | 29906 ft | 403 kts | 328° |
| 2026-05-05 17:44 | 42.78458 | 1.87777 | 30342 ft | 401 kts | 328° |
| 2026-05-05 17:44 | 42.80994 | 1.86194 | 30729 ft | 400 kts | 328° |
| 2026-05-05 17:44 | 42.83486 | 1.84632 | 31113 ft | 399 kts | 327° |
| 2026-05-05 17:44 | 42.85184 | 1.83566 | 31342 ft | 398 kts | 328° |
| 2026-05-05 17:45 | 42.88516 | 1.81475 | 31837 ft | 397 kts | 328° |
| 2026-05-05 17:45 | 42.91021 | 1.79906 | 32193 ft | 396 kts | 328° |
| 2026-05-05 17:45 | 42.92708 | 1.78849 | 32421 ft | 395 kts | 328° |
| 2026-05-05 17:45 | 42.95176 | 1.77303 | 32751 ft | 394 kts | 328° |
| 2026-05-05 17:46 | 42.97673 | 1.75736 | 33044 ft | 395 kts | 328° |
| 2026-05-05 17:46 | 43.00171 | 1.74165 | 33289 ft | 396 kts | 328° |
| 2026-05-05 17:46 | 43.02683 | 1.72584 | 33562 ft | 398 kts | 329° |
| 2026-05-05 17:46 | 43.05201 | 1.70998 | 33803 ft | 400 kts | 329° |
| 2026-05-05 17:47 | 43.07732 | 1.69404 | 34016 ft | 401 kts | 329° |
| 2026-05-05 17:47 | 43.10276 | 1.67799 | 34202 ft | 403 kts | 329° |
| 2026-05-05 17:47 | 43.12826 | 1.66192 | 34384 ft | 404 kts | 329° |
| 2026-05-05 17:47 | 43.15390 | 1.64575 | 34553 ft | 406 kts | 329° |
| 2026-05-05 17:48 | 43.17965 | 1.62949 | 34725 ft | 407 kts | 329° |
| 2026-05-05 17:48 | 43.20541 | 1.61325 | 34891 ft | 409 kts | 329° |
| 2026-05-05 17:48 | 43.23134 | 1.59687 | 35063 ft | 410 kts | 329° |
| 2026-05-05 17:48 | 43.25729 | 1.58041 | 35210 ft | 412 kts | 329° |
| 2026-05-05 17:49 | 43.28339 | 1.56384 | 35366 ft | 414 kts | 329° |
| 2026-05-05 17:49 | 43.30953 | 1.54722 | 35523 ft | 415 kts | 329° |
| 2026-05-05 17:49 | 43.33578 | 1.53054 | 35679 ft | 416 kts | 329° |
| 2026-05-05 17:49 | 43.36212 | 1.51381 | 35860 ft | 417 kts | 329° |
| 2026-05-05 17:50 | 43.38850 | 1.49706 | 35967 ft | 419 kts | 330° |
| 2026-05-05 17:50 | 43.44151 | 1.46335 | 35984 ft | 420 kts | 330° |
| 2026-05-05 17:51 | 43.49456 | 1.42949 | 35980 ft | 420 kts | 330° |
| 2026-05-05 17:51 | 43.54763 | 1.39547 | 35978 ft | 421 kts | 330° |
| 2026-05-05 17:52 | 43.60066 | 1.36136 | 35975 ft | 421 kts | 330° |
| 2026-05-05 17:52 | 43.65374 | 1.32731 | 35984 ft | 421 kts | 330° |
| 2026-05-05 17:53 | 43.70637 | 1.29316 | 35973 ft | 420 kts | 329° |
| 2026-05-05 17:53 | 43.75875 | 1.25742 | 35965 ft | 419 kts | 328° |
| 2026-05-05 17:54 | 43.81091 | 1.22126 | 35961 ft | 419 kts | 328° |
| 2026-05-05 17:54 | 43.86322 | 1.18525 | 35961 ft | 420 kts | 329° |
| 2026-05-05 17:55 | 43.91563 | 1.14933 | 35952 ft | 420 kts | 329° |
| 2026-05-05 17:55 | 43.96808 | 1.11340 | 35965 ft | 420 kts | 329° |
| 2026-05-05 17:56 | 44.02003 | 1.07779 | 35954 ft | 419 kts | 329° |
| 2026-05-05 17:56 | 44.07230 | 1.04177 | 35948 ft | 419 kts | 329° |
| 2026-05-05 17:57 | 44.12455 | 1.00559 | 35948 ft | 419 kts | 329° |
| 2026-05-05 17:57 | 44.17681 | 0.96939 | 35941 ft | 419 kts | 329° |
| 2026-05-05 17:58 | 44.22916 | 0.93308 | 35942 ft | 419 kts | 330° |
| 2026-05-05 17:58 | 44.28140 | 0.89674 | 35936 ft | 419 kts | 330° |
| 2026-05-05 17:59 | 44.33364 | 0.86038 | 35929 ft | 420 kts | 330° |
| 2026-05-05 17:59 | 44.38558 | 0.82416 | 35926 ft | 420 kts | 330° |
| 2026-05-05 18:00 | 44.43785 | 0.78768 | 35934 ft | 420 kts | 330° |
| 2026-05-05 18:00 | 44.49012 | 0.75102 | 35951 ft | 420 kts | 330° |
| 2026-05-05 18:01 | 44.54240 | 0.71418 | 35938 ft | 420 kts | 330° |
| 2026-05-05 18:01 | 44.59466 | 0.67739 | 35936 ft | 420 kts | 330° |
| 2026-05-05 18:02 | 44.64698 | 0.64052 | 35942 ft | 421 kts | 330° |
| 2026-05-05 18:02 | 44.69930 | 0.60365 | 35942 ft | 421 kts | 330° |
| 2026-05-05 18:03 | 44.75162 | 0.56667 | 35943 ft | 421 kts | 330° |
| 2026-05-05 18:03 | 44.80359 | 0.52974 | 35945 ft | 421 kts | 330° |
| 2026-05-05 18:04 | 44.85590 | 0.49248 | 35939 ft | 421 kts | 330° |
| 2026-05-05 18:04 | 44.90833 | 0.45517 | 35946 ft | 424 kts | 330° |
| 2026-05-05 18:05 | 44.96182 | 0.41704 | 35943 ft | 435 kts | 330° |
| 2026-05-05 18:05 | 45.01656 | 0.37790 | 35954 ft | 446 kts | 331° |
| 2026-05-05 18:06 | 45.07255 | 0.33782 | 35933 ft | 456 kts | 331° |
| 2026-05-05 18:06 | 45.12959 | 0.29683 | 35933 ft | 462 kts | 331° |
| 2026-05-05 18:07 | 45.18667 | 0.25567 | 35925 ft | 462 kts | 331° |
| 2026-05-05 18:07 | 45.24408 | 0.21418 | 35929 ft | 463 kts | 331° |
| 2026-05-05 18:08 | 45.30152 | 0.17266 | 35929 ft | 463 kts | 331° |
| 2026-05-05 18:08 | 45.35893 | 0.13110 | 35920 ft | 463 kts | 331° |
| 2026-05-05 18:09 | 45.41634 | 0.08937 | 35923 ft | 463 kts | 331° |
| 2026-05-05 18:09 | 45.47336 | 0.04785 | 35916 ft | 463 kts | 331° |
| 2026-05-05 18:10 | 45.53074 | 0.00600 | 35917 ft | 463 kts | 331° |
| 2026-05-05 18:10 | 45.58812 | -0.03596 | 35920 ft | 463 kts | 331° |
| 2026-05-05 18:11 | 45.64542 | -0.07804 | 35917 ft | 463 kts | 331° |
| 2026-05-05 18:11 | 45.70279 | -0.12026 | 35915 ft | 463 kts | 331° |
| 2026-05-05 18:12 | 45.76017 | -0.16252 | 35910 ft | 463 kts | 331° |
| 2026-05-05 18:12 | 45.81751 | -0.20483 | 35899 ft | 464 kts | 332° |
| 2026-05-05 18:13 | 45.87486 | -0.24724 | 35899 ft | 464 kts | 331° |
| 2026-05-05 18:13 | 45.93223 | -0.28975 | 35898 ft | 464 kts | 331° |
| 2026-05-05 18:14 | 45.98928 | -0.33212 | 35905 ft | 464 kts | 332° |
| 2026-05-05 18:14 | 46.04667 | -0.37494 | 35904 ft | 465 kts | 330° |
| 2026-05-05 18:15 | 46.10412 | -0.41791 | 35901 ft | 465 kts | 331° |
| 2026-05-05 18:15 | 46.16156 | -0.46095 | 35909 ft | 465 kts | 331° |
| 2026-05-05 18:16 | 46.21901 | -0.50403 | 35905 ft | 465 kts | 332° |
| 2026-05-05 18:16 | 46.27643 | -0.54724 | 35911 ft | 465 kts | 331° |
| 2026-05-05 18:17 | 46.33379 | -0.59064 | 35896 ft | 465 kts | 331° |
| 2026-05-05 18:17 | 46.39071 | -0.63373 | 35898 ft | 464 kts | 331° |
| 2026-05-05 18:18 | 46.45133 | -0.66553 | 35884 ft | 465 kts | 349° |
| 2026-05-05 18:18 | 46.51561 | -0.67703 | 35882 ft | 465 kts | 353° |
| 2026-05-05 18:19 | 46.58000 | -0.68774 | 35871 ft | 466 kts | 353° |
| 2026-05-05 18:19 | 46.64448 | -0.69875 | 35872 ft | 466 kts | 353° |
| 2026-05-05 18:20 | 46.70887 | -0.70977 | 35876 ft | 466 kts | 353° |
| 2026-05-05 18:20 | 46.77329 | -0.72078 | 35882 ft | 466 kts | 353° |
| 2026-05-05 18:21 | 46.83765 | -0.73169 | 35880 ft | 465 kts | 353° |
| 2026-05-05 18:21 | 46.90205 | -0.74253 | 35873 ft | 466 kts | 353° |
| 2026-05-05 18:22 | 46.96642 | -0.75338 | 35874 ft | 466 kts | 353° |
| 2026-05-05 18:22 | 47.03038 | -0.76426 | 35878 ft | 465 kts | 353° |
| 2026-05-05 18:23 | 47.09465 | -0.77531 | 35879 ft | 465 kts | 353° |
| 2026-05-05 18:23 | 47.15894 | -0.78631 | 35877 ft | 465 kts | 353° |
| 2026-05-05 18:24 | 47.22314 | -0.79738 | 35884 ft | 464 kts | 354° |
| 2026-05-05 18:24 | 47.28727 | -0.80851 | 35886 ft | 463 kts | 354° |
| 2026-05-05 18:25 | 47.35128 | -0.81959 | 35884 ft | 463 kts | 354° |
| 2026-05-05 18:25 | 47.41528 | -0.83067 | 35883 ft | 463 kts | 354° |
| 2026-05-05 18:26 | 47.47922 | -0.84174 | 35888 ft | 462 kts | 354° |
| 2026-05-05 18:26 | 47.54310 | -0.85282 | 35887 ft | 462 kts | 354° |
| 2026-05-05 18:27 | 47.60706 | -0.86169 | 35889 ft | 462 kts | 356° |
| 2026-05-05 18:27 | 47.67118 | -0.86864 | 35888 ft | 461 kts | 357° |
| 2026-05-05 18:28 | 47.76686 | -0.87953 | 35893 ft | 461 kts | 356° |
| 2026-05-05 18:28 | 47.83085 | -0.88749 | 35890 ft | 461 kts | 356° |
| 2026-05-05 18:29 | 47.89476 | -0.89543 | 35895 ft | 461 kts | 356° |
| 2026-05-05 18:29 | 47.95858 | -0.90330 | 35897 ft | 460 kts | 356° |
| 2026-05-05 18:30 | 48.02252 | -0.91125 | 35893 ft | 460 kts | 356° |
| 2026-05-05 18:30 | 48.08637 | -0.91935 | 35894 ft | 460 kts | 356° |
| 2026-05-05 18:31 | 48.15021 | -0.92730 | 35897 ft | 460 kts | 357° |
| 2026-05-05 18:31 | 48.21366 | -0.93509 | 35902 ft | 460 kts | 356° |
| 2026-05-05 18:32 | 48.27754 | -0.94307 | 35911 ft | 460 kts | 356° |
| 2026-05-05 18:32 | 48.34136 | -0.95114 | 35910 ft | 460 kts | 356° |
| 2026-05-05 18:33 | 48.40528 | -0.95911 | 35911 ft | 460 kts | 356° |
| 2026-05-05 18:33 | 48.46873 | -0.96703 | 35910 ft | 460 kts | 356° |
| 2026-05-05 18:34 | 48.53252 | -0.97510 | 35918 ft | 460 kts | 356° |
| 2026-05-05 18:34 | 48.58565 | -0.98182 | 35922 ft | 460 kts | 356° |
| 2026-05-05 18:35 | 48.64945 | -0.98993 | 35912 ft | 460 kts | 356° |
| 2026-05-05 18:35 | 48.71328 | -0.99798 | 35913 ft | 460 kts | 356° |
| 2026-05-05 18:36 | 48.77714 | -1.00611 | 35918 ft | 460 kts | 356° |
| 2026-05-05 18:36 | 48.84099 | -1.01432 | 35918 ft | 460 kts | 356° |
| 2026-05-05 18:37 | 48.90448 | -1.02239 | 35922 ft | 460 kts | 356° |
| 2026-05-05 18:37 | 48.96840 | -1.03045 | 35921 ft | 461 kts | 356° |
| 2026-05-05 18:38 | 49.03235 | -1.03874 | 35936 ft | 461 kts | 356° |
| 2026-05-05 18:38 | 49.09581 | -1.04704 | 35932 ft | 460 kts | 356° |
| 2026-05-05 18:39 | 49.15966 | -1.05522 | 35933 ft | 460 kts | 356° |
| 2026-05-05 18:39 | 49.22344 | -1.06345 | 35939 ft | 460 kts | 356° |
| 2026-05-05 18:40 | 49.28633 | -1.07162 | 35942 ft | 460 kts | 356° |
| 2026-05-05 18:40 | 49.35012 | -1.07995 | 35944 ft | 459 kts | 356° |
| 2026-05-05 18:41 | 49.41386 | -1.08834 | 35941 ft | 459 kts | 356° |
| 2026-05-05 18:41 | 49.47755 | -1.09679 | 35947 ft | 460 kts | 356° |
| 2026-05-05 18:42 | 49.54127 | -1.10503 | 35944 ft | 459 kts | 356° |
| 2026-05-05 18:42 | 49.60496 | -1.10808 | 35943 ft | 458 kts | 6° |
| 2026-05-05 18:43 | 49.66808 | -1.09950 | 35951 ft | 458 kts | 6° |
| 2026-05-05 18:43 | 49.73159 | -1.09080 | 35943 ft | 458 kts | 6° |
| 2026-05-05 18:44 | 49.79508 | -1.08203 | 35948 ft | 458 kts | 6° |
| 2026-05-05 18:44 | 49.85849 | -1.07322 | 35943 ft | 457 kts | 6° |
| 2026-05-05 18:45 | 49.92192 | -1.06447 | 35939 ft | 457 kts | 6° |
| 2026-05-05 18:45 | 49.98529 | -1.05578 | 35939 ft | 457 kts | 5° |
| 2026-05-05 18:46 | 50.04863 | -1.04713 | 35947 ft | 457 kts | 5° |
| 2026-05-05 18:46 | 50.11195 | -1.03838 | 35947 ft | 457 kts | 5° |
| 2026-05-05 18:47 | 50.17526 | -1.02943 | 35948 ft | 456 kts | 5° |
| 2026-05-05 18:47 | 50.23850 | -1.02059 | 35934 ft | 456 kts | 5° |
| 2026-05-05 18:48 | 50.30125 | -1.01184 | 35942 ft | 456 kts | 5° |
| 2026-05-05 18:48 | 50.36457 | -1.00295 | 35946 ft | 456 kts | 5° |
| 2026-05-05 18:49 | 50.42781 | -0.99410 | 35948 ft | 456 kts | 5° |
| 2026-05-05 18:49 | 50.49114 | -0.98515 | 35669 ft | 457 kts | 5° |
| 2026-05-05 18:50 | 50.52280 | -0.98063 | 35293 ft | 455 kts | 5° |
| 2026-05-05 18:50 | 50.55436 | -0.97614 | 34871 ft | 455 kts | 5° |
| 2026-05-05 18:50 | 50.58581 | -0.97170 | 34440 ft | 454 kts | 5° |
| 2026-05-05 18:50 | 50.61683 | -0.96735 | 34017 ft | 453 kts | 5° |
| 2026-05-05 18:51 | 50.64816 | -0.96291 | 33529 ft | 453 kts | 5° |
| 2026-05-05 18:51 | 50.67962 | -0.95842 | 33029 ft | 454 kts | 5° |
| 2026-05-05 18:51 | 50.71123 | -0.95390 | 32541 ft | 456 kts | 5° |
| 2026-05-05 18:51 | 50.74294 | -0.94934 | 32060 ft | 458 kts | 5° |
| 2026-05-05 18:52 | 50.77479 | -0.94476 | 31590 ft | 460 kts | 5° |
| 2026-05-05 18:52 | 50.80667 | -0.93985 | 31125 ft | 462 kts | 8° |
| 2026-05-05 18:52 | 50.83811 | -0.92907 | 30667 ft | 464 kts | 17° |
| 2026-05-05 18:52 | 50.86888 | -0.91318 | 30218 ft | 466 kts | 18° |
| 2026-05-05 18:53 | 50.89974 | -0.89717 | 29739 ft | 467 kts | 18° |
| 2026-05-05 18:53 | 50.93057 | -0.88119 | 29221 ft | 464 kts | 18° |
| 2026-05-05 18:53 | 50.96111 | -0.86539 | 28705 ft | 460 kts | 18° |
| 2026-05-05 18:53 | 50.99137 | -0.84975 | 28220 ft | 456 kts | 18° |
| 2026-05-05 18:54 | 51.02137 | -0.83424 | 27733 ft | 451 kts | 18° |
| 2026-05-05 18:54 | 51.05109 | -0.81883 | 27271 ft | 447 kts | 18° |
| 2026-05-05 18:54 | 51.08052 | -0.80350 | 26903 ft | 444 kts | 18° |
| 2026-05-05 18:54 | 51.10947 | -0.78840 | 26510 ft | 440 kts | 18° |
| 2026-05-05 18:55 | 51.13851 | -0.77321 | 26101 ft | 437 kts | 18° |
| 2026-05-05 18:55 | 51.16726 | -0.75816 | 25705 ft | 434 kts | 17° |
| 2026-05-05 18:55 | 51.19585 | -0.74318 | 25365 ft | 431 kts | 18° |
| 2026-05-05 18:55 | 51.22426 | -0.72826 | 25070 ft | 429 kts | 17° |
| 2026-05-05 18:56 | 51.25251 | -0.71342 | 24778 ft | 426 kts | 17° |
| 2026-05-05 18:56 | 51.28056 | -0.69870 | 24490 ft | 424 kts | 17° |
| 2026-05-05 18:56 | 51.30848 | -0.68405 | 24206 ft | 421 kts | 17° |
| 2026-05-05 18:56 | 51.33623 | -0.66949 | 23927 ft | 419 kts | 17° |
| 2026-05-05 18:57 | 51.36398 | -0.65489 | 23679 ft | 419 kts | 17° |
| 2026-05-05 18:57 | 51.39161 | -0.64030 | 23488 ft | 418 kts | 17° |
| 2026-05-05 18:57 | 51.41928 | -0.62566 | 23268 ft | 416 kts | 17° |
| 2026-05-05 18:57 | 51.44673 | -0.61112 | 23047 ft | 415 kts | 17° |
| 2026-05-05 18:58 | 51.47413 | -0.59659 | 22812 ft | 413 kts | 17° |
| 2026-05-05 18:58 | 51.50115 | -0.58296 | 22622 ft | 411 kts | 12° |
| 2026-05-05 18:58 | 51.52935 | -0.57824 | 22180 ft | 405 kts | 355° |
| 2026-05-05 18:58 | 51.55678 | -0.58570 | 21709 ft | 397 kts | 346° |
| 2026-05-05 18:59 | 51.58350 | -0.59590 | 21231 ft | 392 kts | 345° |
| 2026-05-05 18:59 | 51.60986 | -0.60604 | 20758 ft | 387 kts | 345° |
| 2026-05-05 18:59 | 51.63587 | -0.61606 | 20309 ft | 382 kts | 345° |
| 2026-05-05 18:59 | 51.66164 | -0.62593 | 19862 ft | 378 kts | 346° |
| 2026-05-05 19:00 | 51.68712 | -0.63570 | 19413 ft | 375 kts | 345° |
| 2026-05-05 19:00 | 51.71237 | -0.64541 | 18975 ft | 371 kts | 346° |
| 2026-05-05 19:00 | 51.73742 | -0.65501 | 18558 ft | 368 kts | 346° |
| 2026-05-05 19:00 | 51.76228 | -0.66449 | 18118 ft | 365 kts | 346° |
| 2026-05-05 19:01 | 51.78695 | -0.67389 | 17633 ft | 363 kts | 346° |
| 2026-05-05 19:01 | 51.81151 | -0.68325 | 17154 ft | 360 kts | 346° |
| 2026-05-05 19:01 | 51.83548 | -0.69242 | 16680 ft | 347 kts | 346° |
| 2026-05-05 19:01 | 51.85824 | -0.70115 | 16203 ft | 335 kts | 345° |
| 2026-05-05 19:02 | 51.88055 | -0.70972 | 15758 ft | 324 kts | 345° |
| 2026-05-05 19:02 | 51.90217 | -0.71805 | 15307 ft | 315 kts | 345° |
| 2026-05-05 19:02 | 51.92333 | -0.72623 | 14862 ft | 310 kts | 345° |
| 2026-05-05 19:02 | 51.94424 | -0.73432 | 14423 ft | 307 kts | 343° |
| 2026-05-05 19:03 | 51.96505 | -0.74237 | 13993 ft | 309 kts | 344° |
| 2026-05-05 19:03 | 51.98601 | -0.75051 | 13542 ft | 311 kts | 345° |
| 2026-05-05 19:03 | 52.00712 | -0.75873 | 13049 ft | 312 kts | 345° |
| 2026-05-05 19:03 | 52.02827 | -0.76695 | 12591 ft | 313 kts | 345° |
| 2026-05-05 19:04 | 52.04951 | -0.77517 | 12118 ft | 314 kts | 344° |
| 2026-05-05 19:04 | 52.07075 | -0.78340 | 11659 ft | 313 kts | 345° |
| 2026-05-05 19:04 | 52.09156 | -0.79145 | 11199 ft | 302 kts | 345° |
| 2026-05-05 19:04 | 52.11164 | -0.79921 | 10754 ft | 291 kts | 344° |
| 2026-05-05 19:05 | 52.13102 | -0.80698 | 10323 ft | 281 kts | 340° |
| 2026-05-05 19:05 | 52.14796 | -0.82140 | 9879 ft | 273 kts | 320° |
| 2026-05-05 19:05 | 52.16001 | -0.84430 | 9415 ft | 271 kts | 299° |
| 2026-05-05 19:05 | 52.16864 | -0.87176 | 9037 ft | 273 kts | 297° |
| 2026-05-05 19:06 | 52.17719 | -0.89928 | 8683 ft | 272 kts | 297° |
| 2026-05-05 19:06 | 52.18572 | -0.92671 | 8319 ft | 271 kts | 297° |
| 2026-05-05 19:06 | 52.19421 | -0.95402 | 7966 ft | 270 kts | 297° |
| 2026-05-05 19:06 | 52.20265 | -0.98131 | 7644 ft | 269 kts | 297° |
| 2026-05-05 19:07 | 52.21110 | -1.00860 | 7286 ft | 271 kts | 297° |
| 2026-05-05 19:07 | 52.21962 | -1.03607 | 6942 ft | 271 kts | 297° |
| 2026-05-05 19:07 | 52.22812 | -1.06352 | 6647 ft | 272 kts | 297° |
| 2026-05-05 19:07 | 52.23661 | -1.09103 | 6400 ft | 272 kts | 297° |
| 2026-05-05 19:08 | 52.24513 | -1.11865 | 6136 ft | 271 kts | 297° |
| 2026-05-05 19:08 | 52.25362 | -1.14613 | 5865 ft | 270 kts | 298° |
| 2026-05-05 19:08 | 52.26203 | -1.17344 | 5695 ft | 269 kts | 298° |
| 2026-05-05 19:08 | 52.27041 | -1.20072 | 5539 ft | 268 kts | 298° |
| 2026-05-05 19:09 | 52.27866 | -1.22763 | 5390 ft | 267 kts | 298° |
| 2026-05-05 19:09 | 52.28688 | -1.25461 | 5264 ft | 263 kts | 298° |
| 2026-05-05 19:09 | 52.29505 | -1.28141 | 5183 ft | 263 kts | 298° |
| 2026-05-05 19:09 | 52.30323 | -1.30818 | 5109 ft | 263 kts | 298° |
| 2026-05-05 19:10 | 52.31135 | -1.33498 | 5003 ft | 263 kts | 296° |
| 2026-05-05 19:10 | 52.31685 | -1.36341 | 4843 ft | 263 kts | 284° |
| 2026-05-05 19:10 | 52.32043 | -1.39277 | 4644 ft | 263 kts | 284° |
| 2026-05-05 19:10 | 52.32398 | -1.42186 | 4431 ft | 257 kts | 284° |
| 2026-05-05 19:11 | 52.32741 | -1.45005 | 4215 ft | 248 kts | 284° |
| 2026-05-05 19:11 | 52.33072 | -1.47722 | 4006 ft | 240 kts | 284° |
| 2026-05-05 19:11 | 52.33392 | -1.50363 | 3797 ft | 234 kts | 278° |
| 2026-05-05 19:11 | 52.33638 | -1.52919 | 3587 ft | 228 kts | 274° |
| 2026-05-05 19:12 | 52.33821 | -1.55470 | 3368 ft | 224 kts | 272° |
| 2026-05-05 19:12 | 52.33935 | -1.57986 | 3140 ft | 220 kts | 269° |
| 2026-05-05 19:12 | 52.33980 | -1.60465 | 2913 ft | 216 kts | 266° |
| 2026-05-05 19:12 | 52.33973 | -1.62902 | 2719 ft | 210 kts | 271° |
| 2026-05-05 19:13 | 52.34468 | -1.65002 | 2593 ft | 189 kts | 310° |
| 2026-05-05 19:13 | 52.35542 | -1.65928 | 2543 ft | 173 kts | 345° |
| 2026-05-05 19:13 | 52.36742 | -1.66148 | 2219 ft | 172 kts | 347° |
| 2026-05-05 19:13 | 52.37871 | -1.66492 | 2051 ft | 159 kts | 336° |
| 2026-05-05 19:14 | 52.38848 | -1.67228 | 1788 ft | 152 kts | 323° |
| 2026-05-05 19:14 | 52.39682 | -1.68266 | 1734 ft | 153 kts | 317° |
| 2026-05-05 19:14 | 52.40489 | -1.69340 | 1473 ft | 147 kts | 320° |
| 2026-05-05 19:14 | 52.41330 | -1.70281 | 1101 ft | 146 kts | 320° |
| 2026-05-05 19:15 | 52.42158 | -1.71225 | 857 ft | 143 kts | 320° |
| 2026-05-05 19:15 | 52.42955 | -1.72114 | 749 ft | 138 kts | 322° |
| 2026-05-05 19:15 | 52.43754 | -1.72963 | 553 ft | 135 kts | 320° |
| 2026-05-05 19:15 | 52.44521 | -1.73809 | 381 ft | 131 kts | 320° |
| 2026-05-05 19:16 | 52.45221 | -1.74617 | 328 ft | 108 kts | 325° |
| 2026-05-05 19:16 | 52.45727 | -1.75181 | 324 ft | 64 kts | 326° |
| 2026-05-05 19:16 | 52.46024 | -1.75513 | 310 ft | 43 kts | 324° |
| 2026-05-05 19:16 | 52.46146 | -1.75615 | 310 ft | 13 kts | 16° |
| 2026-05-05 19:17 | 52.46211 | -1.75478 | 307 ft | 14 kts | 55° |
| 2026-05-05 19:17 | 52.46163 | -1.75339 | 303 ft | 19 kts | 147° |
| 2026-05-05 19:17 | 52.46040 | -1.75201 | 304 ft | 24 kts | 145° |
| 2026-05-05 19:17 | 52.45893 | -1.75037 | 310 ft | 26 kts | 146° |
| 2026-05-05 19:18 | 52.45765 | -1.74893 | 312 ft | 20 kts | 146° |
| 2026-05-05 19:18 | 52.45648 | -1.74764 | 316 ft | 20 kts | 146° |
| 2026-05-05 19:18 | 52.45571 | -1.74678 | 320 ft | 11 kts | 145° |
| 2026-05-05 19:18 | 52.45504 | -1.74603 | 323 ft | 13 kts | 143° |
| 2026-05-05 19:19 | 52.45442 | -1.74464 | 323 ft | 17 kts | 114° |
| 2026-05-05 19:19 | 52.45383 | -1.74267 | 323 ft | 21 kts | 117° |
| 2026-05-05 19:19 | 52.45316 | -1.74032 | 323 ft | 24 kts | 123° |
| 2026-05-05 19:19 | 52.45194 | -1.73874 | 323 ft | 20 kts | 146° |
| 2026-05-05 19:20 | 52.45106 | -1.73766 | 323 ft | 12 kts | 127° |
| 2026-05-05 19:20 | 52.45129 | -1.73653 | 323 ft | 11 kts | 53° |
| 2026-05-05 19:20 | 52.45173 | -1.73548 | 323 ft | 11 kts | 57° |
| 2026-05-05 19:20 | 52.45177 | -1.73479 | 323 ft | 5 kts | 126° |
| 2026-05-05 19:21 | 52.45147 | -1.73446 | 323 ft | 5 kts | 143° |
| 2026-05-05 19:21 | 52.45138 | -1.73433 | 322 ft | 0 kts | 140° |